createdAt,value
2023-02-19T00:00:04.632Z,0.00
2023-02-19T00:01:04.652Z,0.00
2023-02-19T00:02:04.669Z,0.00
2023-02-19T00:03:04.633Z,0.00
2023-02-19T00:04:04.603Z,0.00
2023-02-19T00:05:04.657Z,0.00
2023-02-19T00:06:04.604Z,0.00
2023-02-19T00:07:04.593Z,0.00
2023-02-19T00:08:04.565Z,0.00
2023-02-19T00:09:04.573Z,0.00
2023-02-19T00:10:04.541Z,0.00
2023-02-19T00:12:01.539Z,0.00
2023-02-19T00:13:01.512Z,0.00
2023-02-19T00:14:01.507Z,0.00
2023-02-19T00:15:01.509Z,0.00
2023-02-19T00:16:01.592Z,0.00
2023-02-19T00:17:01.482Z,0.00
2023-02-19T00:18:01.483Z,0.00
2023-02-19T00:19:01.448Z,0.00
2023-02-19T00:20:02.400Z,0.00
2023-02-19T00:21:01.419Z,0.00
2023-02-19T00:22:01.441Z,0.00
2023-02-19T00:23:01.450Z,0.00
2023-02-19T00:24:01.441Z,0.00
2023-02-19T00:25:01.409Z,0.00
2023-02-19T00:26:16.193Z,0.00
2023-02-19T00:27:02.470Z,0.00
2023-02-19T00:28:01.394Z,0.00
2023-02-19T00:29:03.079Z,0.00
2023-02-19T00:30:01.439Z,0.00
2023-02-19T00:31:01.387Z,0.00
2023-02-19T00:32:01.404Z,0.00
2023-02-19T00:33:01.339Z,0.00
2023-02-19T00:34:02.011Z,0.00
2023-02-19T00:35:01.310Z,0.00
2023-02-19T00:36:01.315Z,0.00
2023-02-19T00:37:01.284Z,0.00
2023-02-19T00:38:01.284Z,0.00
2023-02-19T00:39:01.770Z,0.00
2023-02-19T00:40:01.266Z,0.00
2023-02-19T00:41:01.269Z,0.00
2023-02-19T00:42:01.241Z,0.00
2023-02-19T00:43:01.247Z,0.00
2023-02-19T00:44:01.208Z,0.00
2023-02-19T00:45:01.214Z,0.00
2023-02-19T00:46:01.252Z,0.00
2023-02-19T00:47:01.197Z,0.00
2023-02-19T00:48:01.195Z,0.00
2023-02-19T00:49:01.195Z,0.00
2023-02-19T00:50:01.146Z,0.00
2023-02-19T00:51:01.197Z,0.00
2023-02-19T00:52:01.114Z,0.00
2023-02-19T00:53:01.173Z,0.00
2023-02-19T00:54:01.116Z,0.00
2023-02-19T00:55:01.100Z,0.00
2023-02-19T00:56:01.077Z,0.00
2023-02-19T00:57:01.118Z,0.00
2023-02-19T00:58:01.082Z,0.00
2023-02-19T00:59:01.073Z,0.00
2023-02-19T01:00:01.050Z,0.00
2023-02-19T01:01:01.098Z,0.00
2023-02-19T01:02:01.048Z,0.00
2023-02-19T01:03:01.096Z,0.00
2023-02-19T01:04:01.213Z,0.00
2023-02-19T01:05:01.100Z,0.00
2023-02-19T01:06:01.013Z,0.00
2023-02-19T01:07:01.079Z,0.00
2023-02-19T01:08:00.964Z,0.00
2023-02-19T01:09:00.968Z,0.00
2023-02-19T01:10:00.940Z,0.00
2023-02-19T01:11:00.970Z,0.00
2023-02-19T01:12:01.246Z,0.00
2023-02-19T01:13:00.920Z,0.00
2023-02-19T01:14:00.894Z,0.00
2023-02-19T01:15:01.585Z,0.00
2023-02-19T01:16:00.907Z,0.00
2023-02-19T01:17:00.881Z,0.00
2023-02-19T01:18:00.871Z,0.00
2023-02-19T01:19:00.862Z,0.00
2023-02-19T01:20:00.840Z,0.00
2023-02-19T01:21:00.850Z,0.00
2023-02-19T01:22:00.830Z,0.00
2023-02-19T01:23:00.850Z,0.00
2023-02-19T01:24:00.809Z,0.00
2023-02-19T01:25:00.795Z,0.00
2023-02-19T01:26:00.790Z,0.00
2023-02-19T01:27:00.856Z,0.00
2023-02-19T01:28:00.761Z,0.00
2023-02-19T01:29:00.778Z,0.00
2023-02-19T01:30:00.782Z,0.00
2023-02-19T01:31:00.744Z,0.00
2023-02-19T01:32:00.903Z,0.00
2023-02-19T01:33:00.743Z,0.00
2023-02-19T01:34:00.758Z,0.00
2023-02-19T01:35:00.713Z,0.00
2023-02-19T01:36:00.671Z,0.00
2023-02-19T01:37:00.715Z,0.00
2023-02-19T01:38:00.662Z,0.00
2023-02-19T01:39:00.667Z,0.00
2023-02-19T01:40:00.684Z,0.00
2023-02-19T01:41:00.638Z,0.00
2023-02-19T01:42:00.603Z,0.00
2023-02-19T01:43:01.280Z,0.00
2023-02-19T01:44:00.612Z,0.00
2023-02-19T01:45:00.623Z,0.00
2023-02-19T01:46:00.628Z,0.00
2023-02-19T01:47:00.593Z,0.00
2023-02-19T01:48:00.543Z,0.00
2023-02-19T01:49:00.601Z,0.00
2023-02-19T01:50:00.547Z,0.00
2023-02-19T01:51:00.540Z,0.00
2023-02-19T01:52:00.501Z,0.00
2023-02-19T01:53:00.504Z,0.00
2023-02-19T01:54:00.473Z,0.00
2023-02-19T01:55:00.516Z,0.00
2023-02-19T01:56:00.473Z,0.00
2023-02-19T01:57:00.837Z,0.00
2023-02-19T01:58:00.456Z,0.00
2023-02-19T01:59:00.464Z,0.00
2023-02-19T02:00:00.469Z,0.00
2023-02-19T02:01:00.473Z,0.00
2023-02-19T02:02:00.477Z,0.00
2023-02-19T02:03:00.420Z,0.00
2023-02-19T02:04:00.377Z,0.00
2023-02-19T02:05:00.382Z,0.00
2023-02-19T02:06:00.361Z,0.00
2023-02-19T02:07:07.274Z,0.00
2023-02-19T02:08:00.321Z,0.00
2023-02-19T02:09:00.355Z,0.00
2023-02-19T02:10:00.343Z,0.00
2023-02-19T02:11:00.420Z,0.00
2023-02-19T02:12:00.315Z,0.00
2023-02-19T02:13:00.345Z,0.00
2023-02-19T02:14:00.294Z,0.00
2023-02-19T02:15:00.324Z,0.00
2023-02-19T02:16:00.294Z,0.00
2023-02-19T02:17:00.276Z,0.00
2023-02-19T02:18:00.817Z,0.00
2023-02-19T02:19:00.255Z,0.00
2023-02-19T02:20:00.216Z,0.00
2023-02-19T02:21:00.214Z,0.00
2023-02-19T02:22:00.234Z,0.00
2023-02-19T02:23:00.206Z,0.00
2023-02-19T02:24:00.197Z,0.00
2023-02-19T02:25:00.234Z,0.00
2023-02-19T02:26:00.154Z,0.00
2023-02-19T02:27:00.270Z,0.00
2023-02-19T02:28:00.158Z,0.00
2023-02-19T02:29:01.868Z,0.00
2023-02-19T02:30:00.212Z,0.00
2023-02-19T02:31:00.234Z,0.00
2023-02-19T02:32:00.246Z,0.00
2023-02-19T02:33:00.109Z,0.00
2023-02-19T02:34:00.126Z,0.00
2023-02-19T02:35:00.152Z,0.00
2023-02-19T02:36:00.073Z,0.00
2023-02-19T02:37:00.099Z,0.00
2023-02-19T02:38:00.046Z,0.00
2023-02-19T02:39:00.095Z,0.00
2023-02-19T02:40:00.024Z,0.00
2023-02-19T02:41:00.027Z,0.00
2023-02-19T02:42:00.007Z,0.00
2023-02-19T02:43:00.032Z,0.00
2023-02-19T02:44:00.249Z,0.00
2023-02-19T02:45:00.011Z,0.00
2023-02-19T02:46:00.062Z,0.00
2023-02-19T02:46:59.977Z,0.00
2023-02-19T02:47:59.937Z,0.00
2023-02-19T02:48:59.938Z,0.00
2023-02-19T02:49:59.947Z,0.00
2023-02-19T02:50:59.915Z,0.00
2023-02-19T02:52:00.057Z,0.00
2023-02-19T02:52:59.922Z,0.00
2023-02-19T02:53:59.908Z,0.00
2023-02-19T02:55:02.412Z,0.00
2023-02-19T02:55:59.869Z,0.00
2023-02-19T02:56:59.951Z,0.00
2023-02-19T02:57:59.837Z,0.00
2023-02-19T02:58:59.861Z,0.00
2023-02-19T02:59:59.826Z,0.00
2023-02-19T03:00:59.874Z,0.00
2023-02-19T03:01:59.840Z,0.00
2023-02-19T03:02:59.825Z,0.00
2023-02-19T03:03:59.776Z,0.00
2023-02-19T03:04:59.777Z,0.00
2023-02-19T03:05:59.756Z,0.00
2023-02-19T03:06:59.788Z,0.00
2023-02-19T03:07:59.784Z,0.00
2023-02-19T03:08:59.766Z,0.00
2023-02-19T03:09:59.718Z,0.00
2023-02-19T03:10:59.739Z,0.00
2023-02-19T03:11:59.720Z,0.00
2023-02-19T03:12:59.728Z,0.00
2023-02-19T03:13:59.691Z,0.00
2023-02-19T03:14:59.707Z,0.00
2023-02-19T03:15:59.656Z,0.00
2023-02-19T03:16:59.670Z,0.00
2023-02-19T03:17:59.678Z,0.00
2023-02-19T03:18:59.637Z,0.00
2023-02-19T03:19:59.660Z,0.00
2023-02-19T03:20:59.616Z,0.00
2023-02-19T03:21:59.584Z,0.00
2023-02-19T03:22:59.605Z,0.00
2023-02-19T03:23:59.578Z,0.00
2023-02-19T03:24:59.608Z,0.00
2023-02-19T03:25:59.556Z,0.00
2023-02-19T03:26:59.570Z,0.00
2023-02-19T03:27:59.595Z,0.00
2023-02-19T03:28:59.536Z,0.00
2023-02-19T03:29:59.592Z,0.00
2023-02-19T03:30:59.563Z,0.00
2023-02-19T03:31:59.632Z,0.00
2023-02-19T03:32:59.494Z,0.00
2023-02-19T03:33:59.479Z,0.00
2023-02-19T03:34:59.476Z,0.00
2023-02-19T03:35:59.479Z,0.00
2023-02-19T03:36:59.452Z,0.00
2023-02-19T03:37:59.442Z,0.00
2023-02-19T03:38:59.454Z,0.00
2023-02-19T03:39:59.461Z,0.00
2023-02-19T03:41:00.377Z,0.00
2023-02-19T03:41:59.408Z,0.00
2023-02-19T03:42:59.417Z,0.00
2023-02-19T03:43:59.376Z,0.00
2023-02-19T03:44:59.435Z,0.00
2023-02-19T03:45:59.371Z,0.00
2023-02-19T03:46:59.356Z,0.00
2023-02-19T03:47:59.333Z,0.00
2023-02-19T03:48:59.338Z,0.00
2023-02-19T03:49:59.314Z,0.00
2023-02-19T03:50:59.721Z,0.00
2023-02-19T03:51:59.275Z,0.00
2023-02-19T03:52:59.307Z,0.00
2023-02-19T03:53:59.308Z,0.00
2023-02-19T03:54:59.283Z,0.00
2023-02-19T03:55:59.247Z,0.00
2023-02-19T03:56:59.318Z,0.00
2023-02-19T03:58:00.166Z,0.00
2023-02-19T03:58:59.227Z,0.00
2023-02-19T03:59:59.199Z,0.00
2023-02-19T04:00:59.216Z,0.00
2023-02-19T04:01:59.219Z,0.00
2023-02-19T04:02:59.198Z,0.00
2023-02-19T04:03:59.201Z,0.00
2023-02-19T04:04:59.230Z,0.00
2023-02-19T04:05:59.160Z,0.00
2023-02-19T04:06:59.181Z,0.00
2023-02-19T04:07:59.140Z,0.00
2023-02-19T04:08:59.123Z,0.00
2023-02-19T04:09:59.102Z,0.00
2023-02-19T04:10:59.142Z,0.00
2023-02-19T04:11:59.090Z,0.00
2023-02-19T04:12:59.114Z,0.00
2023-02-19T04:13:59.050Z,0.00
2023-02-19T04:14:59.059Z,0.00
2023-02-19T04:15:59.031Z,0.00
2023-02-19T04:16:59.031Z,0.00
2023-02-19T04:17:59.042Z,0.00
2023-02-19T04:18:59.063Z,0.00
2023-02-19T04:19:59.037Z,0.00
2023-02-19T04:20:59.011Z,0.00
2023-02-19T04:21:58.992Z,0.00
2023-02-19T04:22:59.000Z,0.00
2023-02-19T04:23:58.965Z,0.00
2023-02-19T04:24:59.973Z,0.00
2023-02-19T04:25:58.955Z,0.00
2023-02-19T04:26:58.945Z,0.00
2023-02-19T04:27:58.903Z,0.00
2023-02-19T04:28:58.923Z,0.00
2023-02-19T04:29:58.906Z,0.00
2023-02-19T04:30:58.927Z,0.00
2023-02-19T04:31:58.947Z,0.00
2023-02-19T04:32:58.876Z,0.00
2023-02-19T04:33:58.850Z,0.00
2023-02-19T04:34:58.856Z,0.00
2023-02-19T04:35:58.849Z,0.00
2023-02-19T04:36:58.900Z,0.00
2023-02-19T04:37:58.858Z,0.00
2023-02-19T04:38:58.808Z,0.00
2023-02-19T04:39:58.802Z,0.00
2023-02-19T04:40:58.841Z,0.00
2023-02-19T04:41:58.759Z,0.00
2023-02-19T04:42:58.780Z,0.00
2023-02-19T04:43:58.778Z,0.00
2023-02-19T04:44:58.744Z,0.00
2023-02-19T04:45:58.743Z,0.00
2023-02-19T04:46:58.724Z,0.00
2023-02-19T04:47:58.707Z,0.00
2023-02-19T04:48:58.715Z,0.00
2023-02-19T04:49:58.726Z,0.00
2023-02-19T04:50:58.694Z,0.00
2023-02-19T04:51:58.669Z,0.00
2023-02-19T04:52:58.665Z,0.00
2023-02-19T04:53:58.760Z,0.00
2023-02-19T04:54:58.679Z,0.00
2023-02-19T04:55:58.652Z,0.00
2023-02-19T04:56:58.636Z,0.00
2023-02-19T04:57:58.627Z,0.00
2023-02-19T04:58:58.593Z,0.00
2023-02-19T04:59:58.628Z,0.00
2023-02-19T05:00:58.571Z,0.00
2023-02-19T05:01:58.576Z,0.00
2023-02-19T05:02:58.534Z,0.00
2023-02-19T05:03:58.554Z,0.00
2023-02-19T05:04:58.706Z,0.00
2023-02-19T05:05:58.546Z,0.00
2023-02-19T05:06:58.499Z,0.00
2023-02-19T05:07:58.523Z,0.00
2023-02-19T05:08:58.491Z,0.00
2023-02-19T05:09:58.562Z,0.00
2023-02-19T05:10:58.482Z,0.00
2023-02-19T05:12:57.762Z,0.00
2023-02-19T05:13:55.306Z,0.00
2023-02-19T05:14:55.302Z,0.00
2023-02-19T05:15:55.446Z,0.00
2023-02-19T05:16:55.268Z,0.00
2023-02-19T05:17:55.267Z,0.00
2023-02-19T05:18:55.277Z,0.00
2023-02-19T05:19:55.253Z,0.00
2023-02-19T05:20:55.262Z,0.00
2023-02-19T05:21:55.337Z,0.00
2023-02-19T05:22:55.224Z,0.00
2023-02-19T05:23:55.219Z,0.00
2023-02-19T05:24:55.201Z,0.00
2023-02-19T05:25:55.210Z,0.00
2023-02-19T05:26:55.207Z,0.00
2023-02-19T05:27:55.197Z,0.00
2023-02-19T05:28:55.145Z,0.00
2023-02-19T05:29:55.137Z,0.00
2023-02-19T05:30:55.175Z,0.00
2023-02-19T05:31:55.331Z,0.00
2023-02-19T05:32:55.117Z,0.00
2023-02-19T05:33:55.110Z,0.00
2023-02-19T05:34:55.090Z,0.00
2023-02-19T05:35:55.101Z,0.00
2023-02-19T05:36:55.069Z,0.00
2023-02-19T05:37:55.087Z,0.00
2023-02-19T05:38:55.042Z,0.00
2023-02-19T05:39:55.046Z,0.00
2023-02-19T05:40:55.017Z,0.00
2023-02-19T05:41:55.059Z,0.00
2023-02-19T05:42:55.019Z,0.00
2023-02-19T05:43:55.012Z,0.00
2023-02-19T05:44:55.005Z,0.00
2023-02-19T05:45:55.038Z,0.00
2023-02-19T05:46:54.988Z,0.00
2023-02-19T05:47:54.987Z,0.00
2023-02-19T05:48:54.958Z,0.00
2023-02-19T05:49:54.945Z,0.00
2023-02-19T05:50:54.914Z,0.00
2023-02-19T05:51:54.956Z,0.00
2023-02-19T05:52:54.898Z,0.00
2023-02-19T05:53:54.927Z,0.00
2023-02-19T05:54:54.890Z,0.00
2023-02-19T05:55:54.909Z,0.00
2023-02-19T05:56:54.856Z,0.00
2023-02-19T05:57:54.869Z,0.00
2023-02-19T05:58:54.860Z,0.00
2023-02-19T05:59:54.842Z,0.00
2023-02-19T06:00:54.817Z,0.00
2023-02-19T06:01:54.828Z,0.00
2023-02-19T06:02:54.868Z,0.00
2023-02-19T06:03:57.346Z,0.00
2023-02-19T06:04:54.776Z,0.00
2023-02-19T06:05:54.779Z,0.00
2023-02-19T06:06:54.769Z,0.00
2023-02-19T06:07:54.754Z,0.00
2023-02-19T06:08:54.764Z,0.00
2023-02-19T06:09:54.746Z,0.00
2023-02-19T06:10:54.767Z,0.00
2023-02-19T06:11:54.724Z,0.00
2023-02-19T06:12:54.719Z,0.00
2023-02-19T06:13:54.721Z,0.00
2023-02-19T06:14:54.716Z,0.00
2023-02-19T06:15:54.701Z,0.00
2023-02-19T06:16:54.688Z,0.00
2023-02-19T06:17:54.672Z,0.00
2023-02-19T06:18:54.656Z,0.00
2023-02-19T06:19:54.639Z,0.00
2023-02-19T06:20:54.641Z,0.00
2023-02-19T06:21:54.646Z,0.00
2023-02-19T06:22:54.598Z,0.00
2023-02-19T06:23:54.667Z,0.00
2023-02-19T06:24:54.586Z,0.00
2023-02-19T06:25:54.583Z,0.00
2023-02-19T06:26:54.578Z,0.00
2023-02-19T06:27:54.588Z,0.00
2023-02-19T06:28:54.544Z,0.00
2023-02-19T06:29:54.540Z,0.00
2023-02-19T06:30:54.569Z,0.00
2023-02-19T06:31:54.608Z,0.00
2023-02-19T06:32:54.517Z,0.00
2023-02-19T06:33:54.501Z,0.00
2023-02-19T06:34:54.491Z,0.00
2023-02-19T06:35:54.532Z,0.00
2023-02-19T06:36:54.452Z,0.00
2023-02-19T06:37:54.450Z,0.00
2023-02-19T06:38:54.439Z,0.00
2023-02-19T06:39:54.431Z,0.00
2023-02-19T06:40:54.483Z,0.00
2023-02-19T06:41:54.443Z,0.00
2023-02-19T06:42:54.393Z,0.00
2023-02-19T06:43:54.353Z,1.00
2023-02-19T06:44:54.317Z,1.00
2023-02-19T06:45:54.401Z,0.00
2023-02-19T06:46:54.368Z,1.00
2023-02-19T06:47:54.395Z,0.00
2023-02-19T06:48:54.326Z,0.00
2023-02-19T06:49:54.343Z,0.00
2023-02-19T06:50:54.303Z,0.00
2023-02-19T06:51:54.305Z,0.00
2023-02-19T06:52:54.323Z,0.00
2023-02-19T06:53:54.366Z,0.00
2023-02-19T06:54:54.285Z,0.00
2023-02-19T06:55:54.359Z,0.00
2023-02-19T06:56:54.269Z,0.00
2023-02-19T06:57:54.288Z,0.00
2023-02-19T06:58:54.246Z,0.00
2023-02-19T06:59:54.294Z,0.00
2023-02-19T07:00:54.338Z,0.00
2023-02-19T07:01:54.223Z,0.00
2023-02-19T07:02:54.228Z,0.00
2023-02-19T07:03:54.218Z,0.00
2023-02-19T07:04:54.162Z,0.00
2023-02-19T07:05:54.179Z,0.00
2023-02-19T07:06:54.161Z,0.00
2023-02-19T07:07:54.174Z,0.00
2023-02-19T07:08:54.142Z,0.00
2023-02-19T07:09:54.159Z,0.00
2023-02-19T07:10:54.114Z,2.00
2023-02-19T07:11:54.074Z,1.00
2023-02-19T07:12:54.061Z,2.00
2023-02-19T07:13:54.073Z,2.00
2023-02-19T07:14:54.040Z,2.00
2023-02-19T07:15:54.059Z,2.00
2023-02-19T07:16:53.995Z,2.00
2023-02-19T07:17:53.989Z,3.00
2023-02-19T07:18:54.006Z,4.00
2023-02-19T07:19:53.967Z,3.00
2023-02-19T07:20:53.962Z,2.00
2023-02-19T07:21:53.937Z,2.00
2023-02-19T07:22:53.967Z,7.00
2023-02-19T07:23:53.968Z,4.00
2023-02-19T07:24:53.940Z,2.00
2023-02-19T07:25:53.919Z,2.00
2023-02-19T07:26:53.908Z,2.00
2023-02-19T07:27:53.970Z,5.00
2023-02-19T07:28:53.893Z,2.00
2023-02-19T07:29:53.878Z,2.00
2023-02-19T07:30:53.899Z,3.00
2023-02-19T07:31:54.074Z,4.00
2023-02-19T07:32:53.840Z,6.00
2023-02-19T07:33:53.853Z,5.00
2023-02-19T07:34:53.807Z,2.00
2023-02-19T07:35:53.797Z,2.00
2023-02-19T07:36:53.809Z,2.00
2023-02-19T07:37:53.809Z,2.00
2023-02-19T07:38:53.782Z,2.00
2023-02-19T07:39:53.782Z,2.00
2023-02-19T07:40:53.739Z,2.00
2023-02-19T07:41:53.755Z,7.00
2023-02-19T07:42:53.922Z,3.00
2023-02-19T07:43:53.744Z,3.00
2023-02-19T07:44:53.702Z,5.00
2023-02-19T07:45:53.721Z,7.00
2023-02-19T07:46:53.707Z,6.00
2023-02-19T07:47:53.694Z,2.00
2023-02-19T07:48:53.724Z,2.00
2023-02-19T07:49:53.701Z,4.00
2023-02-19T07:50:53.744Z,5.00
2023-02-19T07:51:53.665Z,6.00
2023-02-19T07:52:53.665Z,2.00
2023-02-19T07:53:53.645Z,2.00
2023-02-19T07:54:53.629Z,2.00
2023-02-19T07:55:53.604Z,2.00
2023-02-19T07:56:53.717Z,5.00
2023-02-19T07:57:54.565Z,3.00
2023-02-19T07:58:53.620Z,5.00
2023-02-19T07:59:53.577Z,4.00
2023-02-19T08:00:53.579Z,5.00
2023-02-19T08:01:53.583Z,6.00
2023-02-19T08:02:53.561Z,8.00
2023-02-19T08:03:53.787Z,7.00
2023-02-19T08:04:53.603Z,7.00
2023-02-19T08:05:53.504Z,23.00
2023-02-19T08:06:53.505Z,19.00
2023-02-19T08:07:53.485Z,11.00
2023-02-19T08:08:55.659Z,5.00
2023-02-19T08:09:53.506Z,5.00
2023-02-19T08:10:53.493Z,19.00
2023-02-19T08:11:53.574Z,12.00
2023-02-19T08:12:53.446Z,13.00
2023-02-19T08:13:53.431Z,8.00
2023-02-19T08:14:53.416Z,4.00
2023-02-19T08:15:55.113Z,7.00
2023-02-19T08:16:53.857Z,6.00
2023-02-19T08:17:53.390Z,5.00
2023-02-19T08:18:53.414Z,3.00
2023-02-19T08:19:53.422Z,4.00
2023-02-19T08:20:53.383Z,4.00
2023-02-19T08:21:53.346Z,7.00
2023-02-19T08:22:53.376Z,7.00
2023-02-19T08:23:53.374Z,9.00
2023-02-19T08:24:53.341Z,6.00
2023-02-19T08:25:53.303Z,10.00
2023-02-19T08:26:53.504Z,2.00
2023-02-19T08:27:53.274Z,3.00
2023-02-19T08:28:53.332Z,4.00
2023-02-19T08:29:53.281Z,4.00
2023-02-19T08:30:53.337Z,5.00
2023-02-19T08:31:53.342Z,5.00
2023-02-19T08:32:53.290Z,3.00
2023-02-19T08:33:53.364Z,2.00
2023-02-19T08:34:53.211Z,2.00
2023-02-19T08:35:53.198Z,2.00
2023-02-19T08:36:53.295Z,2.00
2023-02-19T08:37:53.268Z,4.00
2023-02-19T08:38:53.192Z,2.00
2023-02-19T08:39:53.153Z,2.00
2023-02-19T08:40:53.173Z,2.00
2023-02-19T08:41:53.221Z,7.00
2023-02-19T08:42:53.373Z,5.00
2023-02-19T08:43:53.115Z,3.00
2023-02-19T08:44:53.123Z,4.00
2023-02-19T08:45:53.110Z,10.00
2023-02-19T08:46:53.094Z,13.00
2023-02-19T08:47:53.099Z,6.00
2023-02-19T08:48:53.070Z,5.00
2023-02-19T08:49:53.101Z,9.00
2023-02-19T08:50:53.065Z,17.00
2023-02-19T08:51:53.712Z,9.00
2023-02-19T08:52:53.041Z,8.00
2023-02-19T08:53:53.081Z,12.00
2023-02-19T08:54:53.098Z,11.00
2023-02-19T08:55:52.990Z,6.00
2023-02-19T08:56:57.737Z,7.00
2023-02-19T08:57:52.968Z,8.00
2023-02-19T08:58:52.974Z,19.00
2023-02-19T08:59:52.950Z,19.00
2023-02-19T09:00:53.000Z,14.00
2023-02-19T09:01:52.929Z,13.00
2023-02-19T09:02:52.940Z,18.00
2023-02-19T09:03:52.959Z,15.00
2023-02-19T09:04:52.922Z,7.00
2023-02-19T09:05:52.910Z,3.00
2023-02-19T09:06:52.920Z,4.00
2023-02-19T09:07:52.883Z,9.00
2023-02-19T09:08:52.891Z,8.00
2023-02-19T09:09:52.877Z,9.00
2023-02-19T09:10:52.859Z,5.00
2023-02-19T09:11:52.837Z,5.00
2023-02-19T09:12:52.834Z,13.00
2023-02-19T09:13:52.807Z,12.00
2023-02-19T09:14:52.841Z,15.00
2023-02-19T09:15:53.084Z,11.00
2023-02-19T09:16:52.831Z,9.00
2023-02-19T09:17:52.797Z,8.00
2023-02-19T09:18:52.794Z,9.00
2023-02-19T09:19:52.745Z,8.00
2023-02-19T09:20:52.840Z,12.00
2023-02-19T09:21:52.781Z,10.00
2023-02-19T09:22:52.752Z,13.00
2023-02-19T09:23:52.732Z,10.00
2023-02-19T09:24:52.763Z,13.00
2023-02-19T09:25:52.682Z,16.00
2023-02-19T09:26:52.731Z,15.00
2023-02-19T09:27:52.682Z,15.00
2023-02-19T09:28:52.704Z,15.00
2023-02-19T09:29:54.482Z,29.00
2023-02-19T09:30:52.684Z,35.00
2023-02-19T09:31:52.636Z,40.00
2023-02-19T09:32:52.633Z,36.00
2023-02-19T09:33:52.614Z,27.00
2023-02-19T09:34:52.795Z,42.00
2023-02-19T09:35:52.605Z,37.00
2023-02-19T09:36:52.642Z,42.00
2023-02-19T09:37:52.564Z,39.00
2023-02-19T09:38:52.593Z,27.00
2023-02-19T09:39:52.578Z,47.00
2023-02-19T09:40:52.567Z,31.00
2023-02-19T09:41:52.534Z,53.00
2023-02-19T09:42:52.620Z,29.00
2023-02-19T09:43:52.559Z,71.00
2023-02-19T09:44:52.513Z,154.00
2023-02-19T09:45:52.870Z,38.00
2023-02-19T09:46:52.509Z,25.00
2023-02-19T09:47:52.504Z,70.00
2023-02-19T09:48:52.493Z,32.00
2023-02-19T09:49:52.534Z,56.00
2023-02-19T09:50:52.490Z,177.00
2023-02-19T09:51:52.434Z,75.00
2023-02-19T09:52:52.445Z,42.00
2023-02-19T09:53:52.465Z,45.00
2023-02-19T09:54:52.411Z,25.00
2023-02-19T09:55:52.394Z,22.00
2023-02-19T09:56:52.494Z,87.00
2023-02-19T09:57:52.364Z,28.00
2023-02-19T09:58:52.363Z,29.00
2023-02-19T09:59:52.385Z,24.00
2023-02-19T10:00:52.673Z,52.00
2023-02-19T10:01:52.383Z,37.00
2023-02-19T10:02:52.335Z,26.00
2023-02-19T10:03:52.334Z,19.00
2023-02-19T10:04:52.405Z,23.00
2023-02-19T10:05:52.310Z,16.00
2023-02-19T10:06:52.304Z,12.00
2023-02-19T10:07:52.385Z,17.00
2023-02-19T10:08:52.280Z,13.00
2023-02-19T10:09:52.249Z,13.00
2023-02-19T10:10:52.238Z,12.00
2023-02-19T10:11:52.268Z,14.00
2023-02-19T10:13:49.028Z,13.00
2023-02-19T10:14:49.007Z,13.00
2023-02-19T10:15:49.027Z,13.00
2023-02-19T10:16:48.983Z,11.00
2023-02-19T10:17:49.905Z,10.00
2023-02-19T10:18:48.995Z,17.00
2023-02-19T10:19:48.940Z,17.00
2023-02-19T10:20:48.940Z,13.00
2023-02-19T10:21:48.910Z,18.00
2023-02-19T10:22:48.922Z,22.00
2023-02-19T10:23:48.892Z,20.00
2023-02-19T10:24:48.891Z,16.00
2023-02-19T10:25:48.901Z,26.00
2023-02-19T10:26:48.902Z,26.00
2023-02-19T10:27:48.855Z,14.00
2023-02-19T10:28:48.874Z,28.00
2023-02-19T10:29:48.834Z,19.00
2023-02-19T10:30:48.892Z,23.00
2023-02-19T10:31:49.102Z,23.00
2023-02-19T10:32:48.844Z,31.00
2023-02-19T10:33:48.785Z,13.00
2023-02-19T10:34:48.796Z,31.00
2023-02-19T10:35:48.783Z,29.00
2023-02-19T10:36:48.810Z,16.00
2023-02-19T10:37:48.753Z,68.00
2023-02-19T10:38:48.769Z,23.00
2023-02-19T10:39:48.732Z,80.00
2023-02-19T10:40:48.741Z,31.00
2023-02-19T10:41:48.736Z,97.00
2023-02-19T10:42:48.715Z,37.00
2023-02-19T10:43:48.694Z,54.00
2023-02-19T10:44:48.687Z,94.00
2023-02-19T10:45:48.690Z,33.00
2023-02-19T10:46:48.717Z,95.00
2023-02-19T10:47:48.684Z,31.00
2023-02-19T10:48:48.664Z,64.00
2023-02-19T10:49:48.628Z,67.00
2023-02-19T10:50:48.634Z,136.00
2023-02-19T10:51:48.614Z,27.00
2023-02-19T10:52:48.614Z,82.00
2023-02-19T10:53:48.613Z,63.00
2023-02-19T10:54:48.606Z,62.00
2023-02-19T10:55:48.576Z,68.00
2023-02-19T10:56:48.579Z,52.00
2023-02-19T10:57:48.564Z,99.00
2023-02-19T10:58:48.573Z,35.00
2023-02-19T10:59:48.524Z,99.00
2023-02-19T11:00:48.544Z,38.00
2023-02-19T11:01:48.525Z,138.00
2023-02-19T11:02:48.539Z,44.00
2023-02-19T11:03:48.484Z,53.00
2023-02-19T11:04:48.595Z,63.00
2023-02-19T11:05:48.464Z,27.00
2023-02-19T11:06:48.485Z,43.00
2023-02-19T11:07:48.457Z,40.00
2023-02-19T11:08:48.465Z,66.00
2023-02-19T11:09:48.434Z,74.00
2023-02-19T11:10:48.472Z,66.00
2023-02-19T11:11:48.416Z,129.00
2023-02-19T11:12:48.418Z,35.00
2023-02-19T11:13:48.384Z,44.00
2023-02-19T11:14:48.404Z,89.00
2023-02-19T11:15:48.397Z,137.00
2023-02-19T11:16:48.377Z,34.00
2023-02-19T11:17:48.333Z,155.00
2023-02-19T11:18:48.352Z,73.00
2023-02-19T11:19:48.342Z,46.00
2023-02-19T11:20:48.352Z,30.00
2023-02-19T11:21:48.324Z,17.00
2023-02-19T11:22:48.305Z,16.00
2023-02-19T11:23:49.276Z,18.00
2023-02-19T11:24:48.304Z,22.00
2023-02-19T11:25:48.276Z,85.00
2023-02-19T11:26:48.293Z,66.00
2023-02-19T11:27:48.258Z,16.00
2023-02-19T11:28:48.261Z,34.00
2023-02-19T11:29:48.243Z,24.00
2023-02-19T11:30:48.231Z,27.00
2023-02-19T11:31:48.282Z,34.00
2023-02-19T11:32:48.235Z,22.00
2023-02-19T11:33:48.175Z,28.00
2023-02-19T11:34:48.183Z,24.00
2023-02-19T11:35:48.178Z,33.00
2023-02-19T11:36:48.155Z,35.00
2023-02-19T11:37:48.164Z,18.00
2023-02-19T11:38:48.174Z,22.00
2023-02-19T11:39:48.138Z,76.00
2023-02-19T11:40:48.149Z,32.00
2023-02-19T11:41:48.110Z,22.00
2023-02-19T11:42:48.805Z,30.00
2023-02-19T11:43:48.109Z,26.00
2023-02-19T11:44:48.110Z,27.00
2023-02-19T11:45:48.065Z,28.00
2023-02-19T11:46:48.103Z,21.00
2023-02-19T11:47:48.048Z,22.00
2023-02-19T11:48:48.049Z,22.00
2023-02-19T11:49:48.038Z,18.00
2023-02-19T11:50:48.032Z,22.00
2023-02-19T11:51:52.371Z,26.00
2023-02-19T11:52:48.018Z,20.00
2023-02-19T11:53:49.755Z,13.00
2023-02-19T11:54:48.000Z,23.00
2023-02-19T11:55:47.998Z,33.00
2023-02-19T11:56:47.992Z,27.00
2023-02-19T11:57:47.957Z,23.00
2023-02-19T11:58:47.952Z,16.00
2023-02-19T11:59:47.947Z,16.00
2023-02-19T12:00:47.946Z,15.00
2023-02-19T12:01:47.975Z,11.00
2023-02-19T12:02:47.918Z,19.00
2023-02-19T12:03:47.896Z,13.00
2023-02-19T12:04:47.942Z,12.00
2023-02-19T12:05:47.909Z,13.00
2023-02-19T12:06:47.885Z,15.00
2023-02-19T12:07:47.851Z,7.00
2023-02-19T12:08:47.849Z,5.00
2023-02-19T12:09:47.838Z,6.00
2023-02-19T12:10:47.869Z,8.00
2023-02-19T12:11:47.816Z,7.00
2023-02-19T12:12:47.815Z,18.00
2023-02-19T12:13:47.825Z,22.00
2023-02-19T12:14:47.800Z,14.00
2023-02-19T12:15:47.766Z,12.00
2023-02-19T12:16:47.848Z,8.00
2023-02-19T12:17:47.748Z,8.00
2023-02-19T12:18:47.775Z,14.00
2023-02-19T12:19:47.757Z,21.00
2023-02-19T12:20:47.749Z,19.00
2023-02-19T12:21:47.717Z,13.00
2023-02-19T12:22:47.750Z,9.00
2023-02-19T12:23:47.716Z,8.00
2023-02-19T12:24:47.688Z,13.00
2023-02-19T12:25:47.654Z,10.00
2023-02-19T12:26:47.686Z,10.00
2023-02-19T12:27:47.665Z,16.00
2023-02-19T12:28:47.656Z,10.00
2023-02-19T12:29:47.666Z,13.00
2023-02-19T12:30:47.648Z,22.00
2023-02-19T12:31:47.677Z,15.00
2023-02-19T12:32:47.664Z,16.00
2023-02-19T12:33:47.605Z,8.00
2023-02-19T12:34:47.597Z,7.00
2023-02-19T12:35:47.568Z,5.00
2023-02-19T12:36:48.974Z,6.00
2023-02-19T12:37:47.558Z,9.00
2023-02-19T12:38:47.569Z,13.00
2023-02-19T12:39:47.549Z,13.00
2023-02-19T12:40:47.538Z,11.00
2023-02-19T12:41:47.495Z,8.00
2023-02-19T12:42:48.466Z,8.00
2023-02-19T12:43:47.486Z,13.00
2023-02-19T12:44:47.530Z,13.00
2023-02-19T12:45:47.516Z,15.00
2023-02-19T12:46:47.468Z,15.00
2023-02-19T12:47:47.509Z,15.00
2023-02-19T12:48:47.470Z,8.00
2023-02-19T12:49:47.418Z,8.00
2023-02-19T12:50:47.458Z,7.00
2023-02-19T12:51:47.429Z,8.00
2023-02-19T12:52:47.429Z,21.00
2023-02-19T12:53:47.439Z,21.00
2023-02-19T12:54:47.431Z,14.00
2023-02-19T12:55:47.403Z,15.00
2023-02-19T12:56:47.381Z,15.00
2023-02-19T12:57:47.390Z,13.00
2023-02-19T12:58:47.576Z,6.00
2023-02-19T12:59:47.374Z,4.00
2023-02-19T13:00:49.461Z,4.00
2023-02-19T13:01:47.312Z,4.00
2023-02-19T13:02:47.324Z,5.00
2023-02-19T13:03:47.293Z,7.00
2023-02-19T13:04:47.322Z,10.00
2023-02-19T13:05:47.278Z,12.00
2023-02-19T13:06:47.272Z,11.00
2023-02-19T13:07:47.253Z,7.00
2023-02-19T13:09:05.300Z,12.00
2023-02-19T13:09:48.225Z,19.00
2023-02-19T13:10:47.282Z,86.00
2023-02-19T13:11:47.203Z,22.00
2023-02-19T13:12:47.215Z,24.00